Main page
METAR-TAF:

METAR-TAF

Airports :

Tehran, Iran

Mehrabad International Airport

latitude: 35-41N, longitude: 051-21E, elevation: 1204 m

Current weather observation

The report was made 40 minutes ago, at 07:30 UTC
Wind 4 kt from the South
Temperature 15°C
Humidity 25%
Pressure 1026 hPa
Visibility 10 km or more
no clouds below 1500 m and no cumulonimbus

METAR: OIII 040730Z 18004KT CAVOK 15/M05 Q1026 A3031 NOSIG

Time: 11:40 (08:10 UTC)

Forecast

The report was made 3 hours and 10 minutes ago, at 05:00 UTC
Forecast valid from 04 at 06 UTC to 05 at 12 UTC
Wind 10 kt from the West/Northwest
Visibility: 8000 m
Few clouds at a height of 4000 ft

TAF: OIII 040500Z 0406/0512 30005MPS 8000 FEW040

Weather observations and forecasts of more than 4000 airports (METAR and TAF reports).

The available stations are represented by yellow and red dots on the map.

Hover mouse over dot to see the name of the station.

Then click to see weather observations and forecasts.

To change the map : click on the green buttons with a black cross to zoom in, on the green button with a dash to zoom out, or on the green arrows for adjacent maps.


METAR-TAF: